createdAt,value
2022-09-25T00:00:27.887Z,13.91
2022-09-25T00:05:30.441Z,13.87
2022-09-25T00:10:33.077Z,13.86
2022-09-25T00:15:35.844Z,13.81
2022-09-25T00:25:41.164Z,13.83
2022-09-25T00:30:43.987Z,13.91
2022-09-25T00:35:46.550Z,13.99
2022-09-25T00:45:51.964Z,13.99
2022-09-25T00:50:54.430Z,14.01
2022-09-25T00:55:57.090Z,14.06
2022-09-25T01:01:00.037Z,14.11
2022-09-25T01:06:02.583Z,14.14
2022-09-25T01:11:05.303Z,14.23
2022-09-25T01:16:07.908Z,14.22
2022-09-25T01:26:15.711Z,14.22
2022-09-25T01:31:15.952Z,14.23
2022-09-25T01:36:18.455Z,14.12
2022-09-25T01:41:21.378Z,14.08
2022-09-25T01:46:24.060Z,14.01
2022-09-25T01:51:26.409Z,13.98
2022-09-25T01:56:28.840Z,13.94
2022-09-25T02:01:31.797Z,13.94
2022-09-25T02:06:34.243Z,13.86
2022-09-25T02:16:39.603Z,13.82
2022-09-25T02:21:42.112Z,13.79
2022-09-25T02:26:44.570Z,13.8
2022-09-25T02:31:47.331Z,13.76
2022-09-25T02:36:49.988Z,13.75
2022-09-25T02:46:55.433Z,13.73
2022-09-25T02:51:57.902Z,13.7
2022-09-25T02:57:03.878Z,13.63
2022-09-25T03:02:03.425Z,13.6
2022-09-25T03:07:05.994Z,13.62
2022-09-25T03:12:08.609Z,13.59
2022-09-25T03:17:11.313Z,13.61
2022-09-25T03:22:14.037Z,13.62
2022-09-25T03:27:16.783Z,13.56
2022-09-25T03:32:19.459Z,13.59
2022-09-25T03:37:22.077Z,13.58
2022-09-25T03:47:27.197Z,13.5
2022-09-25T03:52:29.775Z,13.49
2022-09-25T03:57:32.435Z,13.5
2022-09-25T04:02:35.234Z,13.41
2022-09-25T04:12:40.316Z,13.41
2022-09-25T04:17:43.028Z,13.4
2022-09-25T04:22:45.639Z,13.34
2022-09-25T04:27:51.085Z,13.34
2022-09-25T04:33:08.587Z,13.35
2022-09-25T04:38:11.784Z,13.37
2022-09-25T04:43:14.503Z,13.32
2022-09-25T04:48:17.088Z,13.2
2022-09-25T04:53:19.626Z,13.15
2022-09-25T05:03:27.954Z,13.06
2022-09-25T05:08:30.429Z,13.08
2022-09-25T05:13:35.778Z,13.07
2022-09-25T05:23:41.630Z,13.07
2022-09-25T05:33:47.060Z,13.11
2022-09-25T05:43:52.112Z,13.17
2022-09-25T05:48:54.624Z,13.34
2022-09-25T05:59:00.416Z,14.04
2022-09-25T06:04:03.266Z,14.37
2022-09-25T06:09:05.948Z,14.71
2022-09-25T06:14:08.833Z,15.31
2022-09-25T06:19:11.677Z,15.62
2022-09-25T06:24:14.719Z,15.68
2022-09-25T06:29:17.569Z,15.89
2022-09-25T06:34:20.376Z,16.14
2022-09-25T06:39:23.020Z,15.83
2022-09-25T06:44:26.054Z,16
2022-09-25T06:49:28.659Z,15.71
2022-09-25T06:54:31.352Z,15.69
2022-09-25T06:59:34.242Z,15.86
2022-09-25T07:04:36.954Z,16.13
2022-09-25T07:14:46.249Z,16.55
2022-09-25T07:19:49.013Z,16.35
2022-09-25T07:24:51.617Z,16.37
2022-09-25T07:29:54.691Z,16.86
2022-09-25T07:34:57.327Z,17.48
2022-09-25T07:40:00.324Z,17.64
2022-09-25T07:45:02.831Z,17.95
2022-09-25T07:50:05.185Z,17.5
2022-09-25T07:55:07.753Z,17.66
2022-09-25T08:00:10.905Z,18.27
2022-09-25T08:10:16.489Z,19.11
2022-09-25T08:20:22.279Z,19.62
2022-09-25T08:35:30.314Z,18.38
2022-09-25T08:40:33.057Z,18.54
2022-09-25T08:45:35.752Z,19.09
2022-09-25T08:50:38.435Z,19.41
2022-09-25T08:55:41.080Z,18.89
2022-09-25T09:00:43.814Z,19.24
2022-09-25T09:10:49.317Z,20.03
2022-09-25T09:15:52.050Z,19.82
2022-09-25T09:20:54.810Z,20.77
2022-09-25T09:25:57.603Z,20.9
2022-09-25T09:31:00.412Z,19.59
2022-09-25T09:36:02.981Z,20.48
2022-09-25T09:46:08.765Z,20.5
2022-09-25T09:51:11.491Z,20.09
2022-09-25T09:56:14.589Z,20.56
2022-09-25T10:01:36.949Z,20.51
2022-09-25T10:06:22.559Z,20.5
2022-09-25T10:11:22.796Z,20.04
2022-09-25T10:16:25.507Z,20.36
2022-09-25T10:21:28.371Z,21.15
2022-09-25T10:26:31.155Z,21.54
2022-09-25T10:31:33.826Z,20.63
2022-09-25T10:36:36.415Z,21.11
2022-09-25T10:41:39.192Z,20.99
2022-09-25T10:46:42.611Z,21.07
2022-09-25T10:51:45.124Z,21.88
2022-09-25T10:56:48.226Z,22.81
2022-09-25T11:01:51.679Z,22.49
2022-09-25T11:06:53.977Z,22.82
2022-09-25T11:11:56.691Z,22.32
2022-09-25T11:16:59.392Z,22.15
2022-09-25T11:22:02.049Z,22.32
2022-09-25T11:27:04.614Z,21.8
2022-09-25T11:32:07.210Z,22.19
2022-09-25T11:37:09.695Z,22.06
2022-09-25T11:42:15.065Z,21.99
2022-09-25T11:47:17.754Z,22.5
2022-09-25T11:52:20.643Z,22.96
2022-09-25T11:57:23.354Z,22.47
2022-09-25T12:02:25.910Z,22.9
2022-09-25T12:07:28.641Z,23.16
2022-09-25T12:12:31.971Z,23.48
2022-09-25T12:17:34.471Z,23.14
2022-09-25T12:22:37.025Z,22.81
2022-09-25T12:32:42.220Z,22.18
2022-09-25T12:42:47.535Z,21.82
2022-09-25T12:47:49.999Z,21.02
2022-09-25T12:57:55.003Z,21.12
2022-09-25T13:02:57.873Z,21.08
2022-09-25T13:08:00.475Z,20.88
2022-09-25T13:13:03.136Z,20.94
2022-09-25T13:18:05.897Z,20.67
2022-09-25T13:28:10.867Z,20.85
2022-09-25T13:33:13.728Z,20.83
2022-09-25T13:38:16.137Z,20.79
2022-09-25T13:43:18.854Z,21.14
2022-09-25T13:48:21.626Z,21.21
2022-09-25T13:59:22.448Z,21.41
2022-09-25T14:04:25.059Z,21.12
2022-09-25T14:09:27.588Z,21.06
2022-09-25T14:14:30.349Z,21.19
2022-09-25T14:19:33.151Z,20.79
2022-09-25T14:24:35.824Z,20.87
2022-09-25T14:29:39.438Z,20.64
2022-09-25T14:34:42.102Z,20.29
2022-09-25T14:39:44.733Z,20.23
2022-09-25T14:44:47.504Z,20.12
2022-09-25T14:49:50.181Z,19.65
2022-09-25T14:54:52.773Z,19.55
2022-09-25T14:59:55.242Z,19.63
2022-09-25T15:04:57.964Z,19.66
2022-09-25T15:10:00.603Z,19.56
2022-09-25T15:15:03.250Z,19.33
2022-09-25T15:20:05.932Z,19.39
2022-09-25T15:25:08.388Z,19.34
2022-09-25T15:30:10.797Z,19.17
2022-09-25T15:35:13.624Z,19.17
2022-09-25T15:40:16.833Z,19.29
2022-09-25T15:45:18.996Z,18.75
2022-09-25T15:50:21.844Z,18.81
2022-09-25T15:55:24.533Z,18.95
2022-09-25T16:00:27.174Z,18.84
2022-09-25T16:05:29.981Z,18.83
2022-09-25T16:10:32.475Z,18.62
2022-09-25T16:15:34.971Z,18.34
2022-09-25T16:20:37.478Z,17.88
2022-09-25T16:25:40.041Z,17.7
2022-09-25T16:30:42.670Z,17.44
2022-09-25T16:36:09.244Z,17.33
2022-09-25T16:40:48.031Z,17.28
2022-09-25T16:45:50.504Z,17.25
2022-09-25T16:50:53.053Z,17.26
2022-09-25T16:55:55.634Z,17.23
2022-09-25T17:00:58.612Z,17.15
2022-09-25T17:06:01.141Z,17.1
2022-09-25T17:11:03.718Z,16.96
2022-09-25T17:16:06.460Z,16.92
2022-09-25T17:21:09.269Z,16.79
2022-09-25T17:26:11.969Z,16.64
2022-09-25T17:31:14.834Z,16.59
2022-09-25T17:36:17.345Z,16.5
2022-09-25T17:41:20.038Z,16.38
2022-09-25T17:46:22.777Z,16.34
2022-09-25T17:51:25.264Z,16.3
2022-09-25T17:56:28.793Z,16.27
2022-09-25T18:01:34.150Z,16.26
2022-09-25T18:11:39.407Z,16.25
2022-09-25T18:16:42.239Z,16.22
2022-09-25T18:21:44.864Z,16.16
2022-09-25T18:26:47.631Z,16.13
2022-09-25T18:31:55.872Z,16.07
2022-09-25T18:36:58.764Z,15.99
2022-09-25T18:42:01.332Z,15.89
2022-09-25T18:47:03.794Z,15.76
2022-09-25T18:52:06.650Z,15.7
2022-09-25T18:57:09.256Z,15.65
2022-09-25T19:02:12.128Z,15.54
2022-09-25T19:12:18.380Z,15.48
2022-09-25T19:17:21.102Z,15.37
2022-09-25T19:22:24.111Z,15.34
2022-09-25T19:32:29.337Z,15.37
2022-09-25T19:37:41.175Z,15.22
2022-09-25T19:42:43.698Z,15.18
2022-09-25T19:47:46.656Z,15.21
2022-09-25T19:52:51.020Z,15.14
2022-09-25T19:57:51.465Z,15.11
2022-09-25T20:02:54.309Z,15.08
2022-09-25T20:07:56.696Z,15.05
2022-09-25T20:12:59.456Z,14.99
2022-09-25T20:18:02.238Z,14.95
2022-09-25T20:23:04.874Z,14.94
2022-09-25T20:28:07.612Z,14.94
2022-09-25T20:33:10.412Z,14.88
2022-09-25T20:43:21.566Z,14.76
2022-09-25T20:48:24.262Z,14.8
2022-09-25T20:53:26.800Z,14.72
2022-09-25T20:58:29.448Z,14.72
2022-09-25T21:03:32.249Z,14.64
2022-09-25T21:13:37.750Z,14.63
2022-09-25T21:18:40.528Z,14.61
2022-09-25T21:23:43.200Z,14.62
2022-09-25T21:28:45.899Z,14.6
2022-09-25T21:33:48.580Z,14.57
2022-09-25T21:38:51.336Z,14.37
2022-09-25T21:48:56.762Z,14.23
2022-09-25T21:53:59.486Z,14.14
2022-09-25T22:04:04.747Z,13.9
2022-09-25T22:09:07.447Z,13.91
2022-09-25T22:14:14.894Z,13.9
2022-09-25T22:19:12.741Z,13.92
2022-09-25T22:24:15.055Z,13.84
2022-09-25T22:49:28.194Z,13.9
2022-09-25T22:54:30.696Z,13.83
2022-09-25T23:04:36.249Z,13.81
2022-09-25T23:09:39.021Z,13.7
2022-09-25T23:14:41.619Z,13.66
2022-09-25T23:19:44.293Z,13.65
2022-09-25T23:24:49.623Z,13.61
2022-09-25T23:29:52.371Z,13.66
2022-09-25T23:34:55.099Z,13.62
2022-09-25T23:39:57.728Z,13.66
2022-09-25T23:45:00.418Z,13.66
2022-09-25T23:50:04.704Z,13.58
